createdAt,value
2023-02-22T00:01:00.010Z,6.20
2023-02-22T00:03:32.389Z,6.20
2023-02-22T00:06:05.260Z,6.20
2023-02-22T00:08:35.682Z,6.20
2023-02-22T00:11:08.786Z,6.20
2023-02-22T00:13:38.063Z,6.20
2023-02-22T00:16:06.261Z,6.20
2023-02-22T00:18:33.329Z,6.20
2023-02-22T00:21:01.147Z,6.20
2023-02-22T00:23:30.554Z,6.20
2023-02-22T00:25:59.474Z,6.12
2023-02-22T00:28:26.620Z,6.10
2023-02-22T00:30:55.145Z,6.10
2023-02-22T00:33:22.691Z,6.10
2023-02-22T00:35:49.908Z,6.10
2023-02-22T00:38:18.882Z,6.08
2023-02-22T00:40:45.825Z,6.14
2023-02-22T00:43:13.182Z,6.14
2023-02-22T00:45:41.186Z,6.10
2023-02-22T00:48:08.917Z,6.10
2023-02-22T00:50:37.013Z,6.10
2023-02-22T00:53:05.297Z,6.10
2023-02-22T00:55:35.944Z,6.00
2023-02-22T00:58:04.188Z,5.98
2023-02-22T01:00:40.036Z,5.90
2023-02-22T01:03:10.750Z,5.90
2023-02-22T01:05:41.090Z,5.80
2023-02-22T01:08:10.162Z,5.80
2023-02-22T01:10:39.214Z,5.70
2023-02-22T01:13:09.390Z,5.70
2023-02-22T01:15:39.013Z,5.60
2023-02-22T01:18:07.070Z,5.60
2023-02-22T01:20:35.353Z,5.50
2023-02-22T01:23:06.835Z,5.50
2023-02-22T01:25:35.772Z,5.44
2023-02-22T01:28:04.448Z,5.40
2023-02-22T01:30:34.324Z,5.40
2023-02-22T01:33:03.131Z,5.40
2023-02-22T01:35:32.972Z,5.38
2023-02-22T01:38:00.432Z,5.36
2023-02-22T01:40:33.918Z,5.30
2023-02-22T01:43:04.270Z,5.30
2023-02-22T01:45:32.882Z,5.30
2023-02-22T01:48:16.978Z,5.30
2023-02-22T01:50:50.342Z,5.30
2023-02-22T01:53:20.633Z,5.30
2023-02-22T01:55:53.957Z,5.40
2023-02-22T01:58:22.384Z,5.40
2023-02-22T02:00:49.828Z,5.40
2023-02-22T02:03:22.361Z,5.40
2023-02-22T02:05:53.044Z,5.38
2023-02-22T02:08:37.284Z,5.38
2023-02-22T02:11:08.714Z,5.34
2023-02-22T02:13:44.180Z,5.30
2023-02-22T02:16:21.941Z,5.30
2023-02-22T02:18:49.359Z,5.30
2023-02-22T02:22:09.527Z,5.30
2023-02-22T02:25:06.388Z,5.30
2023-02-22T02:27:55.918Z,5.30
2023-02-22T02:31:04.468Z,5.30
2023-02-22T02:33:48.940Z,5.40
2023-02-22T02:36:35.428Z,5.40
2023-02-22T02:39:19.501Z,5.46
2023-02-22T02:41:51.143Z,5.48
2023-02-22T02:44:23.525Z,5.50
2023-02-22T02:47:00.269Z,5.50
2023-02-22T02:49:48.950Z,5.60
2023-02-22T02:52:18.435Z,5.60
2023-02-22T02:54:48.859Z,5.56
2023-02-22T02:57:15.585Z,5.60
2023-02-22T02:59:43.650Z,5.60
2023-02-22T03:02:22.681Z,5.60
2023-02-22T03:05:07.465Z,5.60
2023-02-22T03:07:52.123Z,5.60
2023-02-22T03:10:38.047Z,5.60
2023-02-22T03:13:34.340Z,5.58
2023-02-22T03:16:38.451Z,5.52
2023-02-22T03:19:24.146Z,5.58
2023-02-22T03:21:57.337Z,5.50
2023-02-22T03:24:42.583Z,5.50
2023-02-22T03:27:21.951Z,5.40
2023-02-22T03:29:54.177Z,5.30
2023-02-22T03:32:25.873Z,5.20
2023-02-22T03:35:06.649Z,5.10
2023-02-22T03:37:42.520Z,5.00
2023-02-22T03:40:15.346Z,5.00
2023-02-22T03:42:53.025Z,4.90
2023-02-22T03:45:23.785Z,4.90
2023-02-22T03:47:58.633Z,4.88
2023-02-22T03:50:31.426Z,4.80
2023-02-22T03:52:59.343Z,4.80
2023-02-22T03:55:29.146Z,4.80
2023-02-22T03:57:59.656Z,4.78
2023-02-22T04:00:30.834Z,4.70
2023-02-22T04:02:58.205Z,4.70
2023-02-22T04:05:26.092Z,4.68
2023-02-22T04:07:54.694Z,4.60
2023-02-22T04:10:23.185Z,4.60
2023-02-22T04:12:51.131Z,4.60
2023-02-22T04:15:23.544Z,4.60
2023-02-22T04:17:53.740Z,4.60
2023-02-22T04:20:25.673Z,4.60
2023-02-22T04:22:58.876Z,4.60
2023-02-22T04:25:26.429Z,4.60
2023-02-22T04:27:55.107Z,4.60
2023-02-22T04:30:33.873Z,4.50
2023-02-22T04:33:02.091Z,4.50
2023-02-22T04:35:29.112Z,4.50
2023-02-22T04:37:56.208Z,4.44
2023-02-22T04:40:23.355Z,4.40
2023-02-22T04:42:50.359Z,4.40
2023-02-22T04:45:18.175Z,4.40
2023-02-22T04:47:46.302Z,4.36
2023-02-22T04:50:14.559Z,4.30
2023-02-22T04:52:41.568Z,4.30
2023-02-22T04:55:10.076Z,4.30
2023-02-22T04:57:37.766Z,4.30
2023-02-22T05:00:06.901Z,4.30
2023-02-22T05:02:34.265Z,4.36
2023-02-22T05:05:01.223Z,4.40
2023-02-22T05:07:28.347Z,4.38
2023-02-22T05:09:55.394Z,4.36
2023-02-22T05:12:27.739Z,4.34
2023-02-22T05:14:54.668Z,4.30
2023-02-22T05:17:21.859Z,4.40
2023-02-22T05:19:49.014Z,4.40
2023-02-22T05:22:16.158Z,4.40
2023-02-22T05:24:44.043Z,4.50
2023-02-22T05:27:12.048Z,4.50
2023-02-22T05:29:39.082Z,4.50
2023-02-22T05:32:06.916Z,4.60
2023-02-22T05:34:33.968Z,4.60
2023-02-22T05:37:01.030Z,4.60
2023-02-22T05:39:27.811Z,4.60
2023-02-22T05:41:54.693Z,4.64
2023-02-22T05:44:22.058Z,4.70
2023-02-22T05:46:49.437Z,4.70
2023-02-22T05:49:16.427Z,4.72
2023-02-22T05:51:43.396Z,4.80
2023-02-22T05:54:10.589Z,4.80
2023-02-22T05:56:37.778Z,4.80
2023-02-22T05:59:04.606Z,4.90
2023-02-22T06:01:31.781Z,4.90
2023-02-22T06:03:58.837Z,4.90
2023-02-22T06:06:26.120Z,4.90
2023-02-22T06:08:53.040Z,4.84
2023-02-22T06:11:20.274Z,4.82
2023-02-22T06:13:54.171Z,4.80
2023-02-22T06:16:22.553Z,4.88
2023-02-22T06:18:50.355Z,4.90
2023-02-22T06:21:17.963Z,4.90
2023-02-22T06:23:45.501Z,4.94
2023-02-22T06:26:12.434Z,5.00
2023-02-22T06:28:39.369Z,5.10
2023-02-22T06:31:06.313Z,5.10
2023-02-22T06:33:33.425Z,5.10
2023-02-22T06:36:00.337Z,5.10
2023-02-22T06:38:27.991Z,5.14
2023-02-22T06:40:58.584Z,5.20
2023-02-22T06:43:26.019Z,5.30
2023-02-22T06:45:53.726Z,5.30
2023-02-22T06:48:20.930Z,5.40
2023-02-22T06:50:47.737Z,5.40
2023-02-22T06:53:15.136Z,5.42
2023-02-22T06:55:42.255Z,5.50
2023-02-22T06:58:09.237Z,5.50
2023-02-22T07:00:36.192Z,5.60
2023-02-22T07:03:04.634Z,5.60
2023-02-22T07:05:31.599Z,5.60
2023-02-22T07:08:07.972Z,5.60
2023-02-22T07:10:36.745Z,5.70
2023-02-22T07:13:06.025Z,5.80
2023-02-22T07:15:34.284Z,5.82
2023-02-22T07:18:01.971Z,5.90
2023-02-22T07:20:31.601Z,6.00
2023-02-22T07:22:58.843Z,6.10
2023-02-22T07:25:26.521Z,6.20
2023-02-22T07:27:54.067Z,6.30
2023-02-22T07:30:30.852Z,6.40
2023-02-22T07:33:00.641Z,6.40
2023-02-22T07:35:34.041Z,6.50
2023-02-22T07:38:01.100Z,6.52
2023-02-22T07:40:29.204Z,6.60
2023-02-22T07:43:22.952Z,6.60
2023-02-22T07:45:54.700Z,6.70
2023-02-22T07:48:23.824Z,6.80
2023-02-22T07:50:51.359Z,6.90
2023-02-22T07:53:24.727Z,7.00
2023-02-22T07:55:52.461Z,7.10
2023-02-22T07:58:22.468Z,7.16
2023-02-22T08:00:50.192Z,7.30
2023-02-22T08:03:19.459Z,7.40
2023-02-22T08:05:49.412Z,7.50
2023-02-22T08:08:19.657Z,7.60
2023-02-22T08:10:47.819Z,7.70
2023-02-22T08:13:15.665Z,7.80
2023-02-22T08:15:44.449Z,7.90
2023-02-22T08:18:15.231Z,8.00
2023-02-22T08:20:44.384Z,8.06
2023-02-22T08:23:13.905Z,8.10
2023-02-22T08:25:44.737Z,8.20
2023-02-22T08:28:17.803Z,8.36
2023-02-22T08:30:45.055Z,8.50
2023-02-22T08:33:16.912Z,8.60
2023-02-22T08:35:52.079Z,8.70
2023-02-22T08:38:29.353Z,8.80
2023-02-22T08:40:56.812Z,8.90
2023-02-22T08:43:28.778Z,8.90
2023-02-22T08:45:57.672Z,9.00
2023-02-22T08:48:24.958Z,9.02
2023-02-22T08:50:52.118Z,9.10
2023-02-22T08:53:19.163Z,9.20
2023-02-22T08:55:46.533Z,9.30
2023-02-22T08:58:14.016Z,9.30
2023-02-22T09:00:42.391Z,9.40
2023-02-22T09:03:14.039Z,9.50
2023-02-22T09:05:43.164Z,9.58
2023-02-22T09:08:10.792Z,9.60
2023-02-22T09:10:38.040Z,9.70
2023-02-22T09:13:05.410Z,9.80
2023-02-22T09:15:35.980Z,9.90
2023-02-22T09:18:04.714Z,10.00
2023-02-22T09:20:31.886Z,10.10
2023-02-22T09:22:59.639Z,10.20
2023-02-22T09:25:27.305Z,10.20
2023-02-22T09:27:56.294Z,10.30
2023-02-22T09:30:33.838Z,10.46
2023-02-22T09:33:12.432Z,10.60
2023-02-22T09:35:42.768Z,10.70
2023-02-22T09:38:11.309Z,10.80
2023-02-22T09:40:45.263Z,10.92
2023-02-22T09:43:24.968Z,11.10
2023-02-22T09:46:21.115Z,11.20
2023-02-22T09:48:48.341Z,11.30
2023-02-22T09:51:19.124Z,11.40
2023-02-22T09:53:49.982Z,11.50
2023-02-22T09:56:20.432Z,11.62
2023-02-22T09:58:55.477Z,11.78
2023-02-22T10:01:36.498Z,11.90
2023-02-22T10:04:45.457Z,12.00
2023-02-22T10:07:26.126Z,12.10
2023-02-22T10:09:57.188Z,12.20
2023-02-22T10:12:33.177Z,12.30
2023-02-22T10:15:38.714Z,12.40
2023-02-22T10:19:00.034Z,12.50
2023-02-22T10:22:10.992Z,12.60
2023-02-22T10:25:13.039Z,12.70
2023-02-22T10:27:45.040Z,12.76
2023-02-22T10:30:32.054Z,12.80
2023-02-22T10:33:15.953Z,12.90
2023-02-22T10:35:51.828Z,13.00
2023-02-22T10:38:48.797Z,13.10
2023-02-22T10:41:31.383Z,13.20
2023-02-22T10:44:02.973Z,13.30
2023-02-22T10:46:34.511Z,13.40
2023-02-22T10:49:09.735Z,13.50
2023-02-22T10:51:43.059Z,13.60
2023-02-22T10:54:25.466Z,13.66
2023-02-22T10:57:04.161Z,13.70
2023-02-22T10:59:45.444Z,13.80
2023-02-22T11:02:38.426Z,13.90
2023-02-22T11:05:38.182Z,14.00
2023-02-22T11:08:30.967Z,14.02
2023-02-22T11:11:23.868Z,14.10
2023-02-22T11:14:02.435Z,14.20
2023-02-22T11:16:53.758Z,14.20
2023-02-22T11:19:39.335Z,14.30
2023-02-22T11:22:36.077Z,14.34
2023-02-22T11:25:25.178Z,14.40
2023-02-22T11:28:31.052Z,14.44
2023-02-22T11:31:44.757Z,14.52
2023-02-22T11:34:37.751Z,14.60
2023-02-22T11:37:29.724Z,14.70
2023-02-22T11:40:17.878Z,14.70
2023-02-22T11:42:46.235Z,14.74
2023-02-22T11:45:13.836Z,14.80
2023-02-22T11:48:08.390Z,14.80
2023-02-22T11:51:22.900Z,14.90
2023-02-22T11:54:13.662Z,14.90
2023-02-22T11:56:52.504Z,15.00
2023-02-22T11:59:34.887Z,15.00
2023-02-22T12:02:30.818Z,15.10
2023-02-22T12:05:17.978Z,15.20
2023-02-22T12:08:01.409Z,15.30
2023-02-22T12:11:13.152Z,15.30
2023-02-22T12:13:50.439Z,15.40
2023-02-22T12:16:38.226Z,15.40
2023-02-22T12:19:36.241Z,15.50
2023-02-22T12:22:33.488Z,15.50
2023-02-22T12:25:20.761Z,15.60
2023-02-22T12:27:57.822Z,15.56
2023-02-22T12:30:38.698Z,15.60
2023-02-22T12:33:14.761Z,15.60
2023-02-22T12:35:49.479Z,15.70
2023-02-22T12:38:45.933Z,15.70
2023-02-22T12:41:39.811Z,15.80
2023-02-22T12:44:30.909Z,15.80
2023-02-22T12:47:01.624Z,15.80
2023-02-22T12:49:49.757Z,15.90
2023-02-22T12:52:45.035Z,15.90
2023-02-22T12:55:25.646Z,15.90
2023-02-22T12:58:07.840Z,15.90
2023-02-22T13:00:41.714Z,15.90
2023-02-22T13:03:15.460Z,15.80
2023-02-22T13:05:53.706Z,15.90
2023-02-22T13:08:56.020Z,15.90
2023-02-22T13:11:28.766Z,15.92
2023-02-22T13:14:25.353Z,16.00
2023-02-22T13:17:10.254Z,16.10
2023-02-22T13:19:49.003Z,16.10
2023-02-22T13:23:02.401Z,16.10
2023-02-22T13:25:41.410Z,16.04
2023-02-22T13:28:33.655Z,16.10
2023-02-22T13:31:48.065Z,16.10
2023-02-22T13:34:30.073Z,16.08
2023-02-22T13:37:03.718Z,16.00
2023-02-22T13:39:55.616Z,16.00
2023-02-22T13:43:12.537Z,16.00
2023-02-22T13:46:05.023Z,15.92
2023-02-22T13:49:02.054Z,16.00
2023-02-22T13:51:41.163Z,16.00
2023-02-22T13:54:25.212Z,16.00
2023-02-22T13:57:00.278Z,16.00
2023-02-22T13:59:36.079Z,16.00
2023-02-22T14:02:08.100Z,15.90
2023-02-22T14:04:43.014Z,15.92
2023-02-22T14:07:25.032Z,16.00
2023-02-22T14:09:56.074Z,15.90
2023-02-22T14:12:31.470Z,15.90
2023-02-22T14:15:31.199Z,15.90
2023-02-22T14:18:17.040Z,16.00
2023-02-22T14:20:45.243Z,16.00
2023-02-22T14:23:41.576Z,16.00
2023-02-22T14:26:35.552Z,16.00
2023-02-22T14:29:15.267Z,16.00
2023-02-22T14:31:46.508Z,16.00
2023-02-22T14:34:43.909Z,15.90
2023-02-22T14:37:32.630Z,15.90
2023-02-22T14:40:13.297Z,15.90
2023-02-22T14:42:48.538Z,15.90
2023-02-22T14:45:25.033Z,15.80
2023-02-22T14:48:04.227Z,15.80
2023-02-22T14:50:46.035Z,15.74
2023-02-22T14:53:20.557Z,15.60
2023-02-22T14:55:58.178Z,15.50
2023-02-22T14:58:49.814Z,15.50
2023-02-22T15:01:33.947Z,15.50
2023-02-22T15:04:28.800Z,15.50
2023-02-22T15:07:22.116Z,15.50
2023-02-22T15:09:51.715Z,15.30
2023-02-22T15:12:34.658Z,15.38
2023-02-22T15:15:29.040Z,15.30
2023-02-22T15:18:02.325Z,15.30
2023-02-22T15:20:33.357Z,15.20
2023-02-22T15:23:06.753Z,15.10
2023-02-22T15:25:49.232Z,15.10
2023-02-22T15:28:20.431Z,15.00
2023-02-22T15:30:50.338Z,14.90
2023-02-22T15:33:26.436Z,14.80
2023-02-22T15:35:58.313Z,14.80
2023-02-22T15:38:30.486Z,14.70
2023-02-22T15:41:03.441Z,14.60
2023-02-22T15:43:32.569Z,14.50
2023-02-22T15:46:02.878Z,14.44
2023-02-22T15:48:33.147Z,14.32
2023-02-22T15:51:09.394Z,14.20
2023-02-22T15:53:51.648Z,14.10
2023-02-22T15:56:30.203Z,14.08
2023-02-22T15:59:12.385Z,14.00
2023-02-22T16:01:45.202Z,13.90
2023-02-22T16:04:21.344Z,13.80
2023-02-22T16:06:50.139Z,13.70
2023-02-22T16:09:23.345Z,13.60
2023-02-22T16:12:21.850Z,13.50
2023-02-22T16:14:55.282Z,13.40
2023-02-22T16:18:02.432Z,13.30
2023-02-22T16:20:34.301Z,13.30
2023-02-22T16:23:21.631Z,13.12
2023-02-22T16:26:22.402Z,13.10
2023-02-22T16:28:58.564Z,13.00
2023-02-22T16:31:36.973Z,12.90
2023-02-22T16:34:08.553Z,12.90
2023-02-22T16:36:41.045Z,12.80
2023-02-22T16:39:14.156Z,12.70
2023-02-22T16:41:41.574Z,12.60
2023-02-22T16:44:08.990Z,12.54
2023-02-22T16:46:38.226Z,12.50
2023-02-22T16:49:08.042Z,12.40
2023-02-22T16:51:46.112Z,12.38
2023-02-22T16:54:27.027Z,12.30
2023-02-22T16:57:02.275Z,12.30
2023-02-22T16:59:33.264Z,12.20
2023-02-22T17:02:00.451Z,12.20
2023-02-22T17:04:29.243Z,12.20
2023-02-22T17:07:00.398Z,12.10
2023-02-22T17:09:28.152Z,12.10
2023-02-22T17:11:55.998Z,12.00
2023-02-22T17:14:35.886Z,12.00
2023-02-22T17:17:04.447Z,11.90
2023-02-22T17:19:32.326Z,11.90
2023-02-22T17:21:59.555Z,11.84
2023-02-22T17:24:34.078Z,11.80
2023-02-22T17:27:06.460Z,11.80
2023-02-22T17:29:36.780Z,11.70
2023-02-22T17:32:04.478Z,11.78
2023-02-22T17:34:34.266Z,11.72
2023-02-22T17:37:01.702Z,11.70
2023-02-22T17:39:32.037Z,11.70
2023-02-22T17:42:02.322Z,11.60
2023-02-22T17:44:32.700Z,11.60
2023-02-22T17:47:03.109Z,11.60
2023-02-22T17:49:32.666Z,11.50
2023-02-22T17:51:59.565Z,11.50
2023-02-22T17:54:27.224Z,11.40
2023-02-22T17:56:58.019Z,11.40
2023-02-22T17:59:28.173Z,11.30
2023-02-22T18:01:55.506Z,11.30
2023-02-22T18:04:22.472Z,11.30
2023-02-22T18:06:50.058Z,11.30
2023-02-22T18:09:20.410Z,11.20
2023-02-22T18:11:47.913Z,11.20
2023-02-22T18:14:15.035Z,11.20
2023-02-22T18:16:42.825Z,11.10
2023-02-22T18:19:10.124Z,11.10
2023-02-22T18:21:40.426Z,11.08
2023-02-22T18:24:07.971Z,11.00
2023-02-22T18:26:35.192Z,11.00
2023-02-22T18:29:02.158Z,10.90
2023-02-22T18:31:29.654Z,10.90
2023-02-22T18:33:59.740Z,10.88
2023-02-22T18:36:30.531Z,10.80
2023-02-22T18:38:58.200Z,10.80
2023-02-22T18:41:25.773Z,10.80
2023-02-22T18:43:55.506Z,10.70
2023-02-22T18:46:24.292Z,10.70
2023-02-22T18:48:58.607Z,10.66
2023-02-22T18:51:26.794Z,10.70
2023-02-22T18:54:00.550Z,10.60
2023-02-22T18:56:30.352Z,10.60
2023-02-22T18:59:00.345Z,10.58
2023-02-22T19:01:27.711Z,10.50
2023-02-22T19:03:58.180Z,10.50
2023-02-22T19:06:25.551Z,10.50
2023-02-22T19:08:56.178Z,10.50
2023-02-22T19:11:27.033Z,10.40
2023-02-22T19:13:57.502Z,10.40
2023-02-22T19:16:26.849Z,10.36
2023-02-22T19:18:57.855Z,10.30
2023-02-22T19:21:29.289Z,10.30
2023-02-22T19:24:05.800Z,10.30
2023-02-22T19:26:33.412Z,10.34
2023-02-22T19:29:05.392Z,10.30
2023-02-22T19:31:34.103Z,10.30
2023-02-22T19:34:10.554Z,10.26
2023-02-22T19:36:39.634Z,10.24
2023-02-22T19:39:09.747Z,10.20
2023-02-22T19:41:37.249Z,10.20
2023-02-22T19:44:05.338Z,10.10
2023-02-22T19:46:33.300Z,10.10
2023-02-22T19:49:02.592Z,10.10
2023-02-22T19:51:34.334Z,10.00
2023-02-22T19:54:03.567Z,10.00
2023-02-22T19:56:31.736Z,10.00
2023-02-22T19:59:03.171Z,9.90
2023-02-22T20:01:33.406Z,9.90
2023-02-22T20:04:04.196Z,9.90
2023-02-22T20:06:35.080Z,9.90
2023-02-22T20:09:03.471Z,9.90
2023-02-22T20:11:30.692Z,9.90
2023-02-22T20:13:57.992Z,9.82
2023-02-22T20:16:25.338Z,9.80
2023-02-22T20:18:52.375Z,9.80
2023-02-22T20:21:28.556Z,9.78
2023-02-22T20:23:59.422Z,9.70
2023-02-22T20:26:29.499Z,9.70
2023-02-22T20:28:57.642Z,9.70
2023-02-22T20:31:25.551Z,9.70
2023-02-22T20:33:55.448Z,9.66
2023-02-22T20:36:23.184Z,9.60
2023-02-22T20:39:00.283Z,9.60
2023-02-22T20:41:32.431Z,9.60
2023-02-22T20:44:01.170Z,9.52
2023-02-22T20:46:31.795Z,9.50
2023-02-22T20:49:01.256Z,9.50
2023-02-22T20:51:32.626Z,9.42
2023-02-22T20:54:03.352Z,9.40
2023-02-22T20:56:32.210Z,9.40
2023-02-22T20:59:01.875Z,9.40
2023-02-22T21:01:30.647Z,9.32
2023-02-22T21:04:02.298Z,9.30
2023-02-22T21:06:31.063Z,9.30
2023-02-22T21:09:00.185Z,9.20
2023-02-22T21:11:30.500Z,9.20
2023-02-22T21:13:58.278Z,9.16
2023-02-22T21:16:27.963Z,9.10
2023-02-22T21:18:58.639Z,9.04
2023-02-22T21:21:27.132Z,9.00
2023-02-22T21:24:01.926Z,9.00
2023-02-22T21:26:33.295Z,8.92
2023-02-22T21:29:04.921Z,8.94
2023-02-22T21:31:34.266Z,8.90
2023-02-22T21:34:04.519Z,8.90
2023-02-22T21:36:32.174Z,8.90
2023-02-22T21:39:01.501Z,8.90
2023-02-22T21:41:34.032Z,8.88
2023-02-22T21:44:03.365Z,8.84
2023-02-22T21:46:30.944Z,8.90
2023-02-22T21:48:59.176Z,8.90
2023-02-22T21:51:32.137Z,8.80
2023-02-22T21:54:05.836Z,8.80
2023-02-22T21:56:36.795Z,8.80
2023-02-22T21:59:13.871Z,8.80
2023-02-22T22:01:47.339Z,8.80
2023-02-22T22:04:20.250Z,8.80
2023-02-22T22:06:50.949Z,8.80
2023-02-22T22:09:19.866Z,8.78
2023-02-22T22:11:53.635Z,8.70
2023-02-22T22:14:25.234Z,8.70
2023-02-22T22:16:58.364Z,8.70
2023-02-22T22:19:29.413Z,8.70
2023-02-22T22:21:57.808Z,8.70
2023-02-22T22:24:29.402Z,8.70
2023-02-22T22:26:56.951Z,8.70
2023-02-22T22:29:28.529Z,8.70
2023-02-22T22:31:56.790Z,8.70
2023-02-22T22:34:29.761Z,8.70
2023-02-22T22:36:58.283Z,8.66
2023-02-22T22:39:27.000Z,8.64
2023-02-22T22:41:54.056Z,8.62
2023-02-22T22:44:28.948Z,8.60
2023-02-22T22:46:56.224Z,8.60
2023-02-22T22:49:40.564Z,8.60
2023-02-22T22:52:08.297Z,8.60
2023-02-22T22:54:35.767Z,8.58
2023-02-22T22:57:04.148Z,8.60
2023-02-22T22:59:31.927Z,8.50
2023-02-22T23:01:59.422Z,8.50
2023-02-22T23:04:26.572Z,8.50
2023-02-22T23:06:54.632Z,8.40
2023-02-22T23:09:24.467Z,8.40
2023-02-22T23:11:55.280Z,8.32
2023-02-22T23:14:24.337Z,8.30
2023-02-22T23:17:03.868Z,8.30
2023-02-22T23:19:36.764Z,8.30
2023-02-22T23:22:07.046Z,8.30
2023-02-22T23:24:36.337Z,8.20
2023-02-22T23:27:07.858Z,8.20
2023-02-22T23:29:40.558Z,8.20
2023-02-22T23:32:08.889Z,8.20
2023-02-22T23:34:37.013Z,8.10
2023-02-22T23:37:10.163Z,8.10
2023-02-22T23:39:37.404Z,8.10
2023-02-22T23:42:04.328Z,8.10
2023-02-22T23:44:35.063Z,8.00
2023-02-22T23:47:04.089Z,8.00
2023-02-22T23:49:38.474Z,7.98
2023-02-22T23:52:07.149Z,7.90
2023-02-22T23:54:44.223Z,7.90
2023-02-22T23:57:11.600Z,7.90
2023-02-22T23:59:41.953Z,7.80
